sensor_id;sensor_type;location;lat;lon;timestamp;P1;durP1;ratioP1;P2;durP2;ratioP2
13611;SDS011;6877;51.436;6.774;2022-08-01T00:00:26;17.42;;;9.93;;
13611;SDS011;6877;51.436;6.774;2022-08-01T00:02:52;16.42;;;11.05;;
13611;SDS011;6877;51.436;6.774;2022-08-01T00:05:19;15.43;;;10.82;;
13611;SDS011;6877;51.436;6.774;2022-08-01T00:07:51;17.77;;;10.90;;
13611;SDS011;6877;51.436;6.774;2022-08-01T00:10:22;20.25;;;11.45;;
13611;SDS011;6877;51.436;6.774;2022-08-01T00:12:54;19.25;;;11.85;;
13611;SDS011;6877;51.436;6.774;2022-08-01T00:15:25;18.98;;;11.00;;
13611;SDS011;6877;51.436;6.774;2022-08-01T00:17:57;13.05;;;9.73;;
13611;SDS011;6877;51.436;6.774;2022-08-01T00:20:28;16.88;;;11.05;;
13611;SDS011;6877;51.436;6.774;2022-08-01T00:23:01;16.17;;;11.98;;
13611;SDS011;6877;51.436;6.774;2022-08-01T00:25:34;17.15;;;10.77;;
13611;SDS011;6877;51.436;6.774;2022-08-01T00:28:00;15.40;;;10.55;;
13611;SDS011;6877;51.436;6.774;2022-08-01T00:30:27;19.45;;;12.57;;
13611;SDS011;6877;51.436;6.774;2022-08-01T00:32:54;17.38;;;10.95;;
13611;SDS011;6877;51.436;6.774;2022-08-01T00:35:25;19.85;;;11.07;;
13611;SDS011;6877;51.436;6.774;2022-08-01T00:37:57;17.90;;;11.27;;
13611;SDS011;6877;51.436;6.774;2022-08-01T00:40:23;16.05;;;10.95;;
13611;SDS011;6877;51.436;6.774;2022-08-01T00:42:55;19.90;;;11.90;;
13611;SDS011;6877;51.436;6.774;2022-08-01T00:45:26;15.65;;;11.23;;
13611;SDS011;6877;51.436;6.774;2022-08-01T00:47:58;18.55;;;10.80;;
13611;SDS011;6877;51.436;6.774;2022-08-01T00:50:29;23.38;;;13.20;;
13611;SDS011;6877;51.436;6.774;2022-08-01T00:53:01;23.27;;;11.55;;
13611;SDS011;6877;51.436;6.774;2022-08-01T00:55:33;20.08;;;11.98;;
13611;SDS011;6877;51.436;6.774;2022-08-01T00:58:05;15.43;;;11.05;;
13611;SDS011;6877;51.436;6.774;2022-08-01T01:00:36;23.65;;;12.02;;
13611;SDS011;6877;51.436;6.774;2022-08-01T01:03:08;16.42;;;11.05;;
13611;SDS011;6877;51.436;6.774;2022-08-01T01:05:45;23.00;;;12.98;;
13611;SDS011;6877;51.436;6.774;2022-08-01T01:08:27;20.02;;;11.98;;
13611;SDS011;6877;51.436;6.774;2022-08-01T01:11:53;17.13;;;11.57;;
13611;SDS011;6877;51.436;6.774;2022-08-01T01:14:08;17.83;;;11.70;;
13611;SDS011;6877;51.436;6.774;2022-08-01T01:16:44;17.42;;;11.05;;
13611;SDS011;6877;51.436;6.774;2022-08-01T01:19:20;18.50;;;11.18;;
13611;SDS011;6877;51.436;6.774;2022-08-01T01:22:42;20.83;;;11.77;;
13611;SDS011;6877;51.436;6.774;2022-08-01T01:24:55;18.80;;;11.05;;
13611;SDS011;6877;51.436;6.774;2022-08-01T01:30:33;25.45;;;13.20;;
13611;SDS011;6877;51.436;6.774;2022-08-01T01:33:03;20.08;;;11.00;;
13611;SDS011;6877;51.436;6.774;2022-08-01T01:35:38;20.33;;;12.48;;
13611;SDS011;6877;51.436;6.774;2022-08-01T01:38:18;20.17;;;13.00;;
13611;SDS011;6877;51.436;6.774;2022-08-01T01:40:53;22.77;;;12.90;;
13611;SDS011;6877;51.436;6.774;2022-08-01T01:43:26;21.33;;;12.68;;
13611;SDS011;6877;51.436;6.774;2022-08-01T01:46:00;23.85;;;12.15;;
13611;SDS011;6877;51.436;6.774;2022-08-01T01:48:34;23.17;;;12.40;;
13611;SDS011;6877;51.436;6.774;2022-08-01T01:51:07;24.75;;;13.80;;
13611;SDS011;6877;51.436;6.774;2022-08-01T01:53:34;23.35;;;13.35;;
13611;SDS011;6877;51.436;6.774;2022-08-01T01:56:07;26.02;;;13.50;;
13611;SDS011;6877;51.436;6.774;2022-08-01T01:58:41;23.40;;;13.27;;
13611;SDS011;6877;51.436;6.774;2022-08-01T02:01:14;21.23;;;12.60;;
13611;SDS011;6877;51.436;6.774;2022-08-01T02:03:46;22.00;;;13.27;;
13611;SDS011;6877;51.436;6.774;2022-08-01T02:06:19;21.80;;;13.35;;
13611;SDS011;6877;51.436;6.774;2022-08-01T02:08:53;21.40;;;12.27;;
13611;SDS011;6877;51.436;6.774;2022-08-01T02:11:25;20.65;;;12.82;;
13611;SDS011;6877;51.436;6.774;2022-08-01T02:13:58;24.13;;;12.77;;
13611;SDS011;6877;51.436;6.774;2022-08-01T02:16:33;17.08;;;10.45;;
13611;SDS011;6877;51.436;6.774;2022-08-01T02:19:07;24.30;;;11.60;;
13611;SDS011;6877;51.436;6.774;2022-08-01T02:27:12;23.25;;;12.65;;
13611;SDS011;6877;51.436;6.774;2022-08-01T02:29:49;22.27;;;14.82;;
13611;SDS011;6877;51.436;6.774;2022-08-01T02:32:25;22.95;;;14.43;;
13611;SDS011;6877;51.436;6.774;2022-08-01T02:35:12;22.27;;;13.02;;
13611;SDS011;6877;51.436;6.774;2022-08-01T02:37:49;27.38;;;14.60;;
13611;SDS011;6877;51.436;6.774;2022-08-01T02:40:21;34.92;;;15.60;;
13611;SDS011;6877;51.436;6.774;2022-08-01T02:42:53;23.50;;;14.35;;
13611;SDS011;6877;51.436;6.774;2022-08-01T02:45:26;31.10;;;14.27;;
13611;SDS011;6877;51.436;6.774;2022-08-01T02:47:54;23.73;;;14.65;;
13611;SDS011;6877;51.436;6.774;2022-08-01T02:50:32;24.70;;;16.25;;
13611;SDS011;6877;51.436;6.774;2022-08-01T02:53:05;27.13;;;14.73;;
13611;SDS011;6877;51.436;6.774;2022-08-01T02:55:41;30.45;;;16.58;;
13611;SDS011;6877;51.436;6.774;2022-08-01T02:58:16;26.92;;;15.38;;
13611;SDS011;6877;51.436;6.774;2022-08-01T03:00:49;25.38;;;14.32;;
13611;SDS011;6877;51.436;6.774;2022-08-01T03:03:22;24.23;;;14.85;;
13611;SDS011;6877;51.436;6.774;2022-08-01T03:05:54;27.85;;;14.57;;
13611;SDS011;6877;51.436;6.774;2022-08-01T03:08:27;30.23;;;17.13;;
13611;SDS011;6877;51.436;6.774;2022-08-01T03:11:01;27.00;;;15.80;;
13611;SDS011;6877;51.436;6.774;2022-08-01T03:13:34;30.58;;;15.77;;
13611;SDS011;6877;51.436;6.774;2022-08-01T03:16:07;25.20;;;14.88;;
13611;SDS011;6877;51.436;6.774;2022-08-01T03:18:39;27.70;;;16.73;;
13611;SDS011;6877;51.436;6.774;2022-08-01T03:21:12;28.00;;;16.63;;
13611;SDS011;6877;51.436;6.774;2022-08-01T03:23:45;31.60;;;17.63;;
13611;SDS011;6877;51.436;6.774;2022-08-01T03:26:18;28.10;;;16.40;;
13611;SDS011;6877;51.436;6.774;2022-08-01T03:28:50;30.83;;;17.65;;
13611;SDS011;6877;51.436;6.774;2022-08-01T03:31:23;28.05;;;18.25;;
13611;SDS011;6877;51.436;6.774;2022-08-01T03:33:58;27.58;;;16.95;;
13611;SDS011;6877;51.436;6.774;2022-08-01T03:36:30;25.88;;;16.35;;
13611;SDS011;6877;51.436;6.774;2022-08-01T03:39:04;32.53;;;17.77;;
13611;SDS011;6877;51.436;6.774;2022-08-01T03:41:39;35.90;;;18.52;;
13611;SDS011;6877;51.436;6.774;2022-08-01T03:44:15;25.55;;;15.13;;
13611;SDS011;6877;51.436;6.774;2022-08-01T03:46:50;25.55;;;15.45;;
13611;SDS011;6877;51.436;6.774;2022-08-01T03:49:58;31.52;;;17.27;;
13611;SDS011;6877;51.436;6.774;2022-08-01T03:52:24;32.08;;;17.60;;
13611;SDS011;6877;51.436;6.774;2022-08-01T03:54:59;30.85;;;17.38;;
13611;SDS011;6877;51.436;6.774;2022-08-01T03:57:29;27.73;;;16.10;;
13611;SDS011;6877;51.436;6.774;2022-08-01T04:00:01;30.40;;;17.27;;
13611;SDS011;6877;51.436;6.774;2022-08-01T04:02:37;29.23;;;15.40;;
13611;SDS011;6877;51.436;6.774;2022-08-01T04:05:05;30.13;;;15.07;;
13611;SDS011;6877;51.436;6.774;2022-08-01T04:07:37;27.75;;;16.65;;
13611;SDS011;6877;51.436;6.774;2022-08-01T04:10:10;27.20;;;17.30;;
13611;SDS011;6877;51.436;6.774;2022-08-01T04:12:42;32.92;;;18.25;;
13611;SDS011;6877;51.436;6.774;2022-08-01T04:15:13;28.83;;;16.13;;
13611;SDS011;6877;51.436;6.774;2022-08-01T04:17:45;24.23;;;15.70;;
13611;SDS011;6877;51.436;6.774;2022-08-01T04:20:17;28.55;;;15.38;;
13611;SDS011;6877;51.436;6.774;2022-08-01T04:22:48;26.92;;;14.93;;
13611;SDS011;6877;51.436;6.774;2022-08-01T04:25:25;32.38;;;18.42;;
13611;SDS011;6877;51.436;6.774;2022-08-01T04:28:00;29.13;;;17.30;;
13611;SDS011;6877;51.436;6.774;2022-08-01T04:30:35;35.83;;;17.20;;
13611;SDS011;6877;51.436;6.774;2022-08-01T04:33:08;26.80;;;14.65;;
13611;SDS011;6877;51.436;6.774;2022-08-01T04:35:45;25.80;;;16.92;;
13611;SDS011;6877;51.436;6.774;2022-08-01T04:38:21;24.40;;;14.80;;
13611;SDS011;6877;51.436;6.774;2022-08-01T04:40:58;25.77;;;17.20;;
13611;SDS011;6877;51.436;6.774;2022-08-01T04:43:30;22.83;;;14.68;;
13611;SDS011;6877;51.436;6.774;2022-08-01T04:45:58;28.15;;;16.15;;
13611;SDS011;6877;51.436;6.774;2022-08-01T04:48:30;27.48;;;15.10;;
13611;SDS011;6877;51.436;6.774;2022-08-01T04:51:03;26.45;;;15.27;;
13611;SDS011;6877;51.436;6.774;2022-08-01T04:53:35;24.52;;;15.63;;
13611;SDS011;6877;51.436;6.774;2022-08-01T04:56:07;23.77;;;14.90;;
13611;SDS011;6877;51.436;6.774;2022-08-01T04:58:41;30.48;;;18.25;;
13611;SDS011;6877;51.436;6.774;2022-08-01T05:01:13;27.90;;;15.27;;
13611;SDS011;6877;51.436;6.774;2022-08-01T05:03:45;22.02;;;13.18;;
13611;SDS011;6877;51.436;6.774;2022-08-01T05:06:16;28.10;;;14.85;;
13611;SDS011;6877;51.436;6.774;2022-08-01T05:08:47;18.70;;;11.73;;
13611;SDS011;6877;51.436;6.774;2022-08-01T05:11:19;24.70;;;14.82;;
13611;SDS011;6877;51.436;6.774;2022-08-01T05:13:53;26.48;;;15.43;;
13611;SDS011;6877;51.436;6.774;2022-08-01T05:16:24;25.33;;;14.15;;
13611;SDS011;6877;51.436;6.774;2022-08-01T05:18:56;23.83;;;12.93;;
13611;SDS011;6877;51.436;6.774;2022-08-01T05:21:27;24.45;;;14.23;;
13611;SDS011;6877;51.436;6.774;2022-08-01T05:23:59;22.90;;;13.43;;
13611;SDS011;6877;51.436;6.774;2022-08-01T05:26:30;24.80;;;15.70;;
13611;SDS011;6877;51.436;6.774;2022-08-01T05:29:02;24.55;;;15.30;;
13611;SDS011;6877;51.436;6.774;2022-08-01T05:31:34;23.00;;;13.63;;
13611;SDS011;6877;51.436;6.774;2022-08-01T05:34:05;21.85;;;14.45;;
13611;SDS011;6877;51.436;6.774;2022-08-01T05:36:37;25.00;;;14.65;;
13611;SDS011;6877;51.436;6.774;2022-08-01T05:39:08;24.65;;;14.00;;
13611;SDS011;6877;51.436;6.774;2022-08-01T05:41:35;27.95;;;14.80;;
13611;SDS011;6877;51.436;6.774;2022-08-01T05:44:07;26.65;;;14.68;;
13611;SDS011;6877;51.436;6.774;2022-08-01T05:46:39;21.52;;;12.95;;
13611;SDS011;6877;51.436;6.774;2022-08-01T05:49:10;27.30;;;13.70;;
13611;SDS011;6877;51.436;6.774;2022-08-01T05:51:42;22.00;;;13.02;;
13611;SDS011;6877;51.436;6.774;2022-08-01T05:54:13;17.25;;;11.65;;
13611;SDS011;6877;51.436;6.774;2022-08-01T05:56:40;16.67;;;11.32;;
13611;SDS011;6877;51.436;6.774;2022-08-01T05:59:12;19.25;;;12.77;;
13611;SDS011;6877;51.436;6.774;2022-08-01T06:01:43;19.52;;;12.27;;
13611;SDS011;6877;51.436;6.774;2022-08-01T06:04:15;19.90;;;13.23;;
13611;SDS011;6877;51.436;6.774;2022-08-01T06:06:41;19.60;;;12.02;;
13611;SDS011;6877;51.436;6.774;2022-08-01T06:09:13;20.92;;;11.98;;
13611;SDS011;6877;51.436;6.774;2022-08-01T06:11:44;21.45;;;12.75;;
13611;SDS011;6877;51.436;6.774;2022-08-01T06:14:15;18.75;;;11.13;;
13611;SDS011;6877;51.436;6.774;2022-08-01T06:16:47;20.20;;;10.77;;
13611;SDS011;6877;51.436;6.774;2022-08-01T06:19:13;18.58;;;10.65;;
13611;SDS011;6877;51.436;6.774;2022-08-01T06:21:45;17.08;;;9.93;;
13611;SDS011;6877;51.436;6.774;2022-08-01T06:24:11;17.60;;;10.65;;
13611;SDS011;6877;51.436;6.774;2022-08-01T06:26:43;16.17;;;10.13;;
13611;SDS011;6877;51.436;6.774;2022-08-01T06:29:14;13.07;;;9.27;;
13611;SDS011;6877;51.436;6.774;2022-08-01T06:31:46;15.75;;;10.10;;
13611;SDS011;6877;51.436;6.774;2022-08-01T06:34:17;16.30;;;9.98;;
13611;SDS011;6877;51.436;6.774;2022-08-01T06:36:48;16.98;;;10.35;;
13611;SDS011;6877;51.436;6.774;2022-08-01T06:39:20;15.30;;;9.85;;
13611;SDS011;6877;51.436;6.774;2022-08-01T06:41:51;15.20;;;8.05;;
13611;SDS011;6877;51.436;6.774;2022-08-01T06:44:23;14.05;;;7.63;;
13611;SDS011;6877;51.436;6.774;2022-08-01T06:46:54;10.18;;;7.00;;
13611;SDS011;6877;51.436;6.774;2022-08-01T06:49:21;12.32;;;7.85;;
13611;SDS011;6877;51.436;6.774;2022-08-01T06:51:52;12.30;;;6.85;;
13611;SDS011;6877;51.436;6.774;2022-08-01T06:54:24;11.93;;;7.07;;
13611;SDS011;6877;51.436;6.774;2022-08-01T06:56:56;10.73;;;6.30;;
13611;SDS011;6877;51.436;6.774;2022-08-01T06:59:27;6.22;;;5.05;;
13611;SDS011;6877;51.436;6.774;2022-08-01T07:02:00;8.70;;;5.30;;
13611;SDS011;6877;51.436;6.774;2022-08-01T07:04:32;12.90;;;5.15;;
13611;SDS011;6877;51.436;6.774;2022-08-01T07:07:04;6.35;;;4.97;;
13611;SDS011;6877;51.436;6.774;2022-08-01T07:09:35;7.75;;;5.75;;
13611;SDS011;6877;51.436;6.774;2022-08-01T07:12:07;6.25;;;4.20;;
13611;SDS011;6877;51.436;6.774;2022-08-01T07:14:34;8.60;;;3.95;;
13611;SDS011;6877;51.436;6.774;2022-08-01T07:17:06;7.32;;;4.43;;
13611;SDS011;6877;51.436;6.774;2022-08-01T07:19:32;6.05;;;3.25;;
13611;SDS011;6877;51.436;6.774;2022-08-01T07:22:04;6.55;;;4.22;;
13611;SDS011;6877;51.436;6.774;2022-08-01T07:24:35;6.72;;;3.80;;
13611;SDS011;6877;51.436;6.774;2022-08-01T07:27:07;5.50;;;3.25;;
13611;SDS011;6877;51.436;6.774;2022-08-01T07:29:39;6.07;;;3.83;;
13611;SDS011;6877;51.436;6.774;2022-08-01T07:32:10;12.10;;;5.25;;
13611;SDS011;6877;51.436;6.774;2022-08-01T07:34:42;5.70;;;3.88;;
13611;SDS011;6877;51.436;6.774;2022-08-01T07:37:08;10.15;;;6.28;;
13611;SDS011;6877;51.436;6.774;2022-08-01T07:39:40;9.70;;;5.15;;
13611;SDS011;6877;51.436;6.774;2022-08-01T07:42:11;6.28;;;3.65;;
13611;SDS011;6877;51.436;6.774;2022-08-01T07:44:42;6.28;;;3.22;;
13611;SDS011;6877;51.436;6.774;2022-08-01T07:47:14;4.38;;;2.70;;
13611;SDS011;6877;51.436;6.774;2022-08-01T07:49:41;6.78;;;4.10;;
13611;SDS011;6877;51.436;6.774;2022-08-01T07:52:13;10.88;;;4.28;;
13611;SDS011;6877;51.436;6.774;2022-08-01T07:54:39;6.65;;;3.92;;
13611;SDS011;6877;51.436;6.774;2022-08-01T07:57:06;6.82;;;4.07;;
13611;SDS011;6877;51.436;6.774;2022-08-01T07:59:38;6.72;;;4.18;;
13611;SDS011;6877;51.436;6.774;2022-08-01T08:02:09;7.97;;;4.75;;
13611;SDS011;6877;51.436;6.774;2022-08-01T08:04:40;5.30;;;3.75;;
13611;SDS011;6877;51.436;6.774;2022-08-01T08:07:07;6.00;;;4.18;;
13611;SDS011;6877;51.436;6.774;2022-08-01T08:09:39;5.65;;;3.63;;
13611;SDS011;6877;51.436;6.774;2022-08-01T08:12:10;4.50;;;3.55;;
13611;SDS011;6877;51.436;6.774;2022-08-01T08:14:42;7.70;;;4.57;;
13611;SDS011;6877;51.436;6.774;2022-08-01T08:17:13;7.38;;;4.10;;
13611;SDS011;6877;51.436;6.774;2022-08-01T08:19:45;5.63;;;3.03;;
13611;SDS011;6877;51.436;6.774;2022-08-01T08:22:11;3.58;;;2.38;;
13611;SDS011;6877;51.436;6.774;2022-08-01T08:24:43;3.50;;;2.13;;
13611;SDS011;6877;51.436;6.774;2022-08-01T08:27:14;2.20;;;2.00;;
13611;SDS011;6877;51.436;6.774;2022-08-01T08:29:46;3.72;;;1.90;;
13611;SDS011;6877;51.436;6.774;2022-08-01T08:32:18;3.10;;;1.40;;
13611;SDS011;6877;51.436;6.774;2022-08-01T08:34:49;0.95;;;0.82;;
13611;SDS011;6877;51.436;6.774;2022-08-01T08:37:20;1.98;;;1.50;;
13611;SDS011;6877;51.436;6.774;2022-08-01T08:39:52;1.30;;;1.20;;
13611;SDS011;6877;51.436;6.774;2022-08-01T08:42:23;1.58;;;1.30;;
13611;SDS011;6877;51.436;6.774;2022-08-01T08:44:55;5.30;;;1.30;;
13611;SDS011;6877;51.436;6.774;2022-08-01T08:47:26;1.50;;;1.40;;
13611;SDS011;6877;51.436;6.774;2022-08-01T08:50:02;1.42;;;1.33;;
13611;SDS011;6877;51.436;6.774;2022-08-01T08:52:35;1.35;;;1.20;;
13611;SDS011;6877;51.436;6.774;2022-08-01T08:55:04;2.03;;;1.30;;
13611;SDS011;6877;51.436;6.774;2022-08-01T08:57:31;1.80;;;1.23;;
13611;SDS011;6877;51.436;6.774;2022-08-01T09:00:03;1.70;;;0.98;;
13611;SDS011;6877;51.436;6.774;2022-08-01T09:02:35;2.70;;;1.48;;
13611;SDS011;6877;51.436;6.774;2022-08-01T09:05:07;4.15;;;1.55;;
13611;SDS011;6877;51.436;6.774;2022-08-01T09:07:39;1.40;;;1.30;;
13611;SDS011;6877;51.436;6.774;2022-08-01T09:10:05;3.72;;;1.80;;
13611;SDS011;6877;51.436;6.774;2022-08-01T09:12:38;2.08;;;1.67;;
13611;SDS011;6877;51.436;6.774;2022-08-01T09:15:09;1.73;;;1.30;;
13611;SDS011;6877;51.436;6.774;2022-08-01T09:17:41;2.33;;;1.55;;
13611;SDS011;6877;51.436;6.774;2022-08-01T09:20:22;3.05;;;1.48;;
13611;SDS011;6877;51.436;6.774;2022-08-01T09:22:55;1.33;;;1.23;;
13611;SDS011;6877;51.436;6.774;2022-08-01T09:25:26;2.15;;;1.40;;
13611;SDS011;6877;51.436;6.774;2022-08-01T09:28:04;2.05;;;1.55;;
13611;SDS011;6877;51.436;6.774;2022-08-01T09:30:38;1.92;;;1.45;;
13611;SDS011;6877;51.436;6.774;2022-08-01T09:33:10;2.47;;;2.03;;
13611;SDS011;6877;51.436;6.774;2022-08-01T09:35:42;3.17;;;1.58;;
13611;SDS011;6877;51.436;6.774;2022-08-01T09:38:19;2.53;;;1.77;;
13611;SDS011;6877;51.436;6.774;2022-08-01T09:40:51;2.67;;;1.80;;
13611;SDS011;6877;51.436;6.774;2022-08-01T09:43:28;1.88;;;1.30;;
13611;SDS011;6877;51.436;6.774;2022-08-01T09:46:08;1.77;;;1.50;;
13611;SDS011;6877;51.436;6.774;2022-08-01T09:48:55;2.00;;;1.35;;
13611;SDS011;6877;51.436;6.774;2022-08-01T09:54:01;2.85;;;2.42;;
13611;SDS011;6877;51.436;6.774;2022-08-01T09:56:40;1.30;;;1.20;;
13611;SDS011;6877;51.436;6.774;2022-08-01T09:59:13;2.63;;;1.50;;
13611;SDS011;6877;51.436;6.774;2022-08-01T10:01:45;1.83;;;1.33;;
13611;SDS011;6877;51.436;6.774;2022-08-01T10:04:20;2.03;;;1.33;;
13611;SDS011;6877;51.436;6.774;2022-08-01T10:06:52;1.70;;;1.60;;
13611;SDS011;6877;51.436;6.774;2022-08-01T10:09:35;2.63;;;1.60;;
13611;SDS011;6877;51.436;6.774;2022-08-01T10:12:08;2.25;;;1.67;;
13611;SDS011;6877;51.436;6.774;2022-08-01T10:14:40;3.95;;;1.75;;
13611;SDS011;6877;51.436;6.774;2022-08-01T10:17:13;1.75;;;1.65;;
13611;SDS011;6877;51.436;6.774;2022-08-01T10:19:46;2.17;;;1.73;;
13611;SDS011;6877;51.436;6.774;2022-08-01T10:22:22;3.03;;;1.58;;
13611;SDS011;6877;51.436;6.774;2022-08-01T10:24:55;1.67;;;1.58;;
13611;SDS011;6877;51.436;6.774;2022-08-01T10:27:28;1.73;;;1.60;;
13611;SDS011;6877;51.436;6.774;2022-08-01T10:30:04;1.67;;;1.23;;
13611;SDS011;6877;51.436;6.774;2022-08-01T10:32:32;2.67;;;1.30;;
13611;SDS011;6877;51.436;6.774;2022-08-01T10:35:06;1.63;;;1.30;;
13611;SDS011;6877;51.436;6.774;2022-08-01T10:37:38;3.47;;;1.75;;
13611;SDS011;6877;51.436;6.774;2022-08-01T10:40:11;1.30;;;1.17;;
13611;SDS011;6877;51.436;6.774;2022-08-01T10:42:44;6.30;;;1.80;;
13611;SDS011;6877;51.436;6.774;2022-08-01T10:45:16;1.73;;;1.45;;
13611;SDS011;6877;51.436;6.774;2022-08-01T10:47:51;2.83;;;1.50;;
13611;SDS011;6877;51.436;6.774;2022-08-01T10:55:57;2.30;;;1.20;;
13611;SDS011;6877;51.436;6.774;2022-08-01T10:58:34;1.70;;;1.50;;
13611;SDS011;6877;51.436;6.774;2022-08-01T11:04:02;4.07;;;1.75;;
13611;SDS011;6877;51.436;6.774;2022-08-01T11:11:58;5.70;;;2.03;;
13611;SDS011;6877;51.436;6.774;2022-08-01T11:30:45;2.80;;;1.40;;
13611;SDS011;6877;51.436;6.774;2022-08-01T11:41:31;5.30;;;1.55;;
13611;SDS011;6877;51.436;6.774;2022-08-01T11:46:57;2.25;;;1.52;;
13611;SDS011;6877;51.436;6.774;2022-08-01T11:52:08;3.33;;;1.90;;
13611;SDS011;6877;51.436;6.774;2022-08-01T11:57:17;2.08;;;1.30;;
13611;SDS011;6877;51.436;6.774;2022-08-01T11:59:52;2.70;;;1.25;;
13611;SDS011;6877;51.436;6.774;2022-08-01T12:05:02;4.38;;;1.73;;
13611;SDS011;6877;51.436;6.774;2022-08-01T12:07:38;1.67;;;1.58;;
13611;SDS011;6877;51.436;6.774;2022-08-01T12:10:13;3.05;;;1.65;;
13611;SDS011;6877;51.436;6.774;2022-08-01T12:12:46;2.97;;;1.48;;
13611;SDS011;6877;51.436;6.774;2022-08-01T12:15:20;2.22;;;1.45;;
13611;SDS011;6877;51.436;6.774;2022-08-01T12:17:57;5.28;;;1.73;;
13611;SDS011;6877;51.436;6.774;2022-08-01T12:20:31;2.40;;;1.35;;
13611;SDS011;6877;51.436;6.774;2022-08-01T12:23:04;1.67;;;1.33;;
13611;SDS011;6877;51.436;6.774;2022-08-01T12:25:40;6.30;;;1.75;;
13611;SDS011;6877;51.436;6.774;2022-08-01T12:28:16;5.47;;;1.60;;
13611;SDS011;6877;51.436;6.774;2022-08-01T12:30:49;10.55;;;1.48;;
13611;SDS011;6877;51.436;6.774;2022-08-01T12:33:17;1.85;;;1.30;;
13611;SDS011;6877;51.436;6.774;2022-08-01T12:35:49;2.67;;;1.35;;
13611;SDS011;6877;51.436;6.774;2022-08-01T12:38:21;1.52;;;1.42;;
13611;SDS011;6877;51.436;6.774;2022-08-01T12:40:54;4.15;;;1.58;;
13611;SDS011;6877;51.436;6.774;2022-08-01T12:43:22;1.80;;;1.40;;
13611;SDS011;6877;51.436;6.774;2022-08-01T12:45:57;1.25;;;1.13;;
13611;SDS011;6877;51.436;6.774;2022-08-01T12:48:26;3.10;;;1.27;;
13611;SDS011;6877;51.436;6.774;2022-08-01T12:50:58;1.42;;;1.10;;
13611;SDS011;6877;51.436;6.774;2022-08-01T12:53:34;1.35;;;1.02;;
13611;SDS011;6877;51.436;6.774;2022-08-01T12:56:06;2.65;;;1.02;;
13611;SDS011;6877;51.436;6.774;2022-08-01T12:58:38;3.00;;;1.42;;
13611;SDS011;6877;51.436;6.774;2022-08-01T13:01:10;2.17;;;1.58;;
13611;SDS011;6877;51.436;6.774;2022-08-01T13:03:56;2.08;;;1.30;;
13611;SDS011;6877;51.436;6.774;2022-08-01T13:06:32;6.40;;;2.45;;
13611;SDS011;6877;51.436;6.774;2022-08-01T13:09:07;2.83;;;1.67;;
13611;SDS011;6877;51.436;6.774;2022-08-01T13:11:43;1.30;;;1.20;;
13611;SDS011;6877;51.436;6.774;2022-08-01T13:14:27;5.35;;;1.90;;
13611;SDS011;6877;51.436;6.774;2022-08-01T13:17:00;4.10;;;1.60;;
13611;SDS011;6877;51.436;6.774;2022-08-01T13:19:44;5.25;;;1.60;;
13611;SDS011;6877;51.436;6.774;2022-08-01T13:22:13;6.50;;;2.38;;
13611;SDS011;6877;51.436;6.774;2022-08-01T13:24:44;3.50;;;1.50;;
13611;SDS011;6877;51.436;6.774;2022-08-01T13:27:22;4.18;;;1.63;;
13611;SDS011;6877;51.436;6.774;2022-08-01T13:29:55;6.60;;;1.90;;
13611;SDS011;6877;51.436;6.774;2022-08-01T13:32:37;4.13;;;2.00;;
13611;SDS011;6877;51.436;6.774;2022-08-01T13:35:10;3.92;;;1.67;;
13611;SDS011;6877;51.436;6.774;2022-08-01T13:37:43;4.25;;;1.75;;
13611;SDS011;6877;51.436;6.774;2022-08-01T13:40:22;3.92;;;2.00;;
13611;SDS011;6877;51.436;6.774;2022-08-01T13:42:58;2.15;;;1.80;;
13611;SDS011;6877;51.436;6.774;2022-08-01T13:45:24;1.52;;;1.33;;
13611;SDS011;6877;51.436;6.774;2022-08-01T13:47:56;4.07;;;1.75;;
13611;SDS011;6877;51.436;6.774;2022-08-01T13:50:27;4.65;;;2.05;;
13611;SDS011;6877;51.436;6.774;2022-08-01T13:52:59;4.55;;;2.05;;
13611;SDS011;6877;51.436;6.774;2022-08-01T13:55:31;10.35;;;1.73;;
13611;SDS011;6877;51.436;6.774;2022-08-01T13:58:02;4.22;;;2.00;;
13611;SDS011;6877;51.436;6.774;2022-08-01T14:00:34;4.95;;;2.22;;
13611;SDS011;6877;51.436;6.774;2022-08-01T14:03:05;3.25;;;1.80;;
13611;SDS011;6877;51.436;6.774;2022-08-01T14:05:37;2.88;;;2.15;;
13611;SDS011;6877;51.436;6.774;2022-08-01T14:08:09;6.05;;;1.90;;
13611;SDS011;6877;51.436;6.774;2022-08-01T14:10:41;3.53;;;1.80;;
13611;SDS011;6877;51.436;6.774;2022-08-01T14:13:12;4.38;;;1.77;;
13611;SDS011;6877;51.436;6.774;2022-08-01T14:15:45;5.18;;;2.58;;
13611;SDS011;6877;51.436;6.774;2022-08-01T14:18:16;3.50;;;1.65;;
13611;SDS011;6877;51.436;6.774;2022-08-01T14:20:48;4.07;;;1.95;;
13611;SDS011;6877;51.436;6.774;2022-08-01T14:23:19;3.45;;;2.00;;
13611;SDS011;6877;51.436;6.774;2022-08-01T14:25:50;2.67;;;1.90;;
13611;SDS011;6877;51.436;6.774;2022-08-01T14:28:22;4.53;;;2.08;;
13611;SDS011;6877;51.436;6.774;2022-08-01T14:30:50;2.20;;;1.58;;
13611;SDS011;6877;51.436;6.774;2022-08-01T14:33:21;4.13;;;1.70;;
13611;SDS011;6877;51.436;6.774;2022-08-01T14:35:53;3.55;;;2.03;;
13611;SDS011;6877;51.436;6.774;2022-08-01T14:38:25;3.53;;;1.90;;
13611;SDS011;6877;51.436;6.774;2022-08-01T14:40:56;6.57;;;2.50;;
13611;SDS011;6877;51.436;6.774;2022-08-01T14:43:28;5.55;;;2.25;;
13611;SDS011;6877;51.436;6.774;2022-08-01T14:46:00;3.38;;;2.25;;
13611;SDS011;6877;51.436;6.774;2022-08-01T14:48:28;5.80;;;2.20;;
13611;SDS011;6877;51.436;6.774;2022-08-01T14:51:00;3.65;;;2.40;;
13611;SDS011;6877;51.436;6.774;2022-08-01T14:53:33;3.15;;;1.90;;
13611;SDS011;6877;51.436;6.774;2022-08-01T14:56:03;6.07;;;2.10;;
13611;SDS011;6877;51.436;6.774;2022-08-01T14:58:29;8.00;;;4.50;;
13611;SDS011;6877;51.436;6.774;2022-08-01T15:01:01;5.45;;;2.38;;
13611;SDS011;6877;51.436;6.774;2022-08-01T15:03:33;6.90;;;1.88;;
13611;SDS011;6877;51.436;6.774;2022-08-01T15:06:04;5.10;;;1.98;;
13611;SDS011;6877;51.436;6.774;2022-08-01T15:08:37;7.13;;;2.42;;
13611;SDS011;6877;51.436;6.774;2022-08-01T15:11:08;2.85;;;2.03;;
13611;SDS011;6877;51.436;6.774;2022-08-01T15:13:40;2.15;;;1.63;;
13611;SDS011;6877;51.436;6.774;2022-08-01T15:16:11;1.92;;;1.33;;
13611;SDS011;6877;51.436;6.774;2022-08-01T15:18:43;2.63;;;1.55;;
13611;SDS011;6877;51.436;6.774;2022-08-01T15:21:14;1.52;;;1.40;;
13611;SDS011;6877;51.436;6.774;2022-08-01T15:23:41;2.08;;;1.40;;
13611;SDS011;6877;51.436;6.774;2022-08-01T15:26:12;1.58;;;1.48;;
13611;SDS011;6877;51.436;6.774;2022-08-01T15:28:44;2.05;;;1.20;;
13611;SDS011;6877;51.436;6.774;2022-08-01T15:31:16;3.20;;;1.40;;
13611;SDS011;6877;51.436;6.774;2022-08-01T15:33:43;2.75;;;1.50;;
13611;SDS011;6877;51.436;6.774;2022-08-01T15:36:14;2.42;;;1.67;;
13611;SDS011;6877;51.436;6.774;2022-08-01T15:38:40;1.48;;;1.38;;
13611;SDS011;6877;51.436;6.774;2022-08-01T15:41:12;3.83;;;1.30;;
13611;SDS011;6877;51.436;6.774;2022-08-01T15:43:43;3.22;;;1.45;;
13611;SDS011;6877;51.436;6.774;2022-08-01T15:46:15;2.78;;;1.70;;
13611;SDS011;6877;51.436;6.774;2022-08-01T15:48:46;3.85;;;1.48;;
13611;SDS011;6877;51.436;6.774;2022-08-01T15:51:18;2.67;;;1.50;;
13611;SDS011;6877;51.436;6.774;2022-08-01T15:53:49;2.50;;;1.55;;
13611;SDS011;6877;51.436;6.774;2022-08-01T15:56:21;1.83;;;1.40;;
13611;SDS011;6877;51.436;6.774;2022-08-01T15:58:52;1.77;;;1.67;;
13611;SDS011;6877;51.436;6.774;2022-08-01T16:01:24;2.88;;;1.88;;
13611;SDS011;6877;51.436;6.774;2022-08-01T16:03:58;3.13;;;2.10;;
13611;SDS011;6877;51.436;6.774;2022-08-01T16:06:25;6.32;;;1.92;;
13611;SDS011;6877;51.436;6.774;2022-08-01T16:09:00;4.60;;;1.90;;
13611;SDS011;6877;51.436;6.774;2022-08-01T16:11:31;2.80;;;2.03;;
13611;SDS011;6877;51.436;6.774;2022-08-01T16:14:05;3.40;;;1.52;;
13611;SDS011;6877;51.436;6.774;2022-08-01T16:16:37;3.25;;;1.70;;
13611;SDS011;6877;51.436;6.774;2022-08-01T16:19:09;2.28;;;1.60;;
13611;SDS011;6877;51.436;6.774;2022-08-01T16:21:40;3.80;;;1.90;;